createdAt,value
2023-04-12T00:01:06.778Z,47.83
2023-04-12T00:03:34.670Z,47.74
2023-04-12T00:06:03.557Z,47.74
2023-04-12T00:08:35.419Z,47.76
2023-04-12T00:11:03.948Z,47.77
2023-04-12T00:13:31.248Z,47.88
2023-04-12T00:15:58.819Z,47.77
2023-04-12T00:18:26.353Z,47.62
2023-04-12T00:20:55.723Z,47.66
2023-04-12T00:23:23.028Z,47.64
2023-04-12T00:25:50.715Z,47.76
2023-04-12T00:28:18.237Z,47.86
2023-04-12T00:30:46.005Z,47.95
2023-04-12T00:33:13.276Z,47.54
2023-04-12T00:35:40.899Z,47.68
2023-04-12T00:38:10.864Z,47.75
2023-04-12T00:40:42.728Z,47.59
2023-04-12T00:43:15.420Z,47.74
2023-04-12T00:45:43.117Z,47.77
2023-04-12T00:48:10.801Z,47.65
2023-04-12T00:50:44.666Z,47.76
2023-04-12T00:53:13.943Z,47.54
2023-04-12T00:55:45.711Z,47.79
2023-04-12T00:58:14.537Z,47.65
2023-04-12T01:00:42.518Z,47.66
2023-04-12T01:03:09.963Z,47.62
2023-04-12T01:06:14.050Z,47.65
2023-04-12T01:09:20.512Z,47.64
2023-04-12T01:11:53.961Z,47.64
2023-04-12T01:14:46.277Z,47.70
2023-04-12T01:17:20.942Z,47.80
2023-04-12T01:19:57.593Z,47.71
2023-04-12T01:22:53.374Z,47.79
2023-04-12T01:25:42.700Z,47.87
2023-04-12T01:28:14.818Z,47.92
2023-04-12T01:30:43.341Z,47.88
2023-04-12T01:33:12.415Z,47.92
2023-04-12T01:35:40.891Z,47.97
2023-04-12T01:38:09.705Z,47.93
2023-04-12T01:40:40.767Z,48.15
2023-04-12T01:43:12.968Z,47.87
2023-04-12T01:45:40.758Z,48.16
2023-04-12T01:48:10.788Z,48.04
2023-04-12T01:50:47.122Z,48.15
2023-04-12T01:53:25.634Z,47.98
2023-04-12T01:55:58.590Z,48.15
2023-04-12T01:58:27.146Z,48.08
2023-04-12T02:00:55.905Z,48.12
2023-04-12T02:03:23.806Z,48.17
2023-04-12T02:05:52.403Z,48.33
2023-04-12T02:08:21.958Z,48.50
2023-04-12T02:10:49.215Z,48.27
2023-04-12T02:13:18.308Z,48.23
2023-04-12T02:15:46.026Z,48.33
2023-04-12T02:18:13.996Z,48.20
2023-04-12T02:20:43.869Z,48.11
2023-04-12T02:23:11.155Z,48.05
2023-04-12T02:25:39.702Z,47.95
2023-04-12T02:28:07.058Z,48.07
2023-04-12T02:30:35.736Z,48.16
2023-04-12T02:33:06.208Z,48.10
2023-04-12T02:35:36.424Z,48.05
2023-04-12T02:38:08.651Z,48.07
2023-04-12T02:40:40.892Z,48.08
2023-04-12T02:43:10.230Z,48.08
2023-04-12T02:45:42.626Z,47.95
2023-04-12T02:48:11.377Z,48.01
2023-04-12T02:50:39.002Z,47.98
2023-04-12T02:53:26.270Z,48.17
2023-04-12T02:56:12.200Z,47.97
2023-04-12T02:58:39.781Z,48.04
2023-04-12T03:01:08.164Z,48.00
2023-04-12T03:03:53.156Z,48.04
2023-04-12T03:06:36.187Z,47.89
2023-04-12T03:09:03.694Z,47.99
2023-04-12T03:11:30.989Z,48.00
2023-04-12T03:13:58.739Z,47.90
2023-04-12T03:16:29.936Z,47.90
2023-04-12T03:19:07.643Z,47.81
2023-04-12T03:21:35.884Z,47.99
2023-04-12T03:24:04.468Z,47.87
2023-04-12T03:26:32.584Z,47.90
2023-04-12T03:29:11.285Z,47.87
2023-04-12T03:31:40.757Z,47.86
2023-04-12T03:34:09.631Z,47.82
2023-04-12T03:36:41.708Z,47.91
2023-04-12T03:39:35.455Z,47.74
2023-04-12T03:42:02.777Z,47.78
2023-04-12T03:44:30.793Z,47.84
2023-04-12T03:47:00.192Z,48.00
2023-04-12T03:49:33.756Z,47.91
2023-04-12T03:52:02.946Z,47.93
2023-04-12T03:54:33.119Z,47.75
2023-04-12T03:57:05.736Z,47.98
2023-04-12T03:59:44.154Z,47.67
2023-04-12T04:02:12.268Z,47.87
2023-04-12T04:04:46.130Z,47.95
2023-04-12T04:07:19.805Z,47.92
2023-04-12T04:09:47.147Z,47.83
2023-04-12T04:12:15.647Z,47.91
2023-04-12T04:14:46.847Z,47.71
2023-04-12T04:17:23.888Z,47.79
2023-04-12T04:19:51.540Z,47.92
2023-04-12T04:22:21.682Z,47.99
2023-04-12T04:24:51.768Z,47.95
2023-04-12T04:27:20.555Z,47.92
2023-04-12T04:29:51.227Z,47.94
2023-04-12T04:32:18.767Z,47.91
2023-04-12T04:34:46.611Z,48.02
2023-04-12T04:37:18.973Z,47.81
2023-04-12T04:39:48.190Z,48.00
2023-04-12T04:42:15.431Z,47.99
2023-04-12T04:45:03.059Z,47.78
2023-04-12T04:47:34.789Z,48.10
2023-04-12T04:50:02.094Z,48.06
2023-04-12T04:52:29.363Z,47.90
2023-04-12T04:55:03.912Z,48.02
2023-04-12T04:57:36.711Z,47.97
2023-04-12T05:00:11.706Z,47.93
2023-04-12T05:02:45.755Z,47.97
2023-04-12T05:05:18.017Z,47.74
2023-04-12T05:07:47.406Z,47.94
2023-04-12T05:10:15.733Z,47.83
2023-04-12T05:12:44.127Z,47.79
2023-04-12T05:15:14.223Z,47.95
2023-04-12T05:17:42.165Z,47.85
2023-04-12T05:20:10.958Z,47.88
2023-04-12T05:22:39.378Z,47.77
2023-04-12T05:25:07.016Z,47.80
2023-04-12T05:27:39.913Z,47.78
2023-04-12T05:30:09.836Z,48.05
2023-04-12T05:32:37.481Z,47.97
2023-04-12T05:35:06.067Z,48.16
2023-04-12T05:37:35.020Z,47.97
2023-04-12T05:40:02.251Z,48.19
2023-04-12T05:42:29.867Z,48.08
2023-04-12T05:44:58.780Z,48.06
2023-04-12T05:47:26.082Z,48.26
2023-04-12T05:49:56.584Z,48.21
2023-04-12T05:52:23.985Z,48.42
2023-04-12T05:54:52.729Z,48.36
2023-04-12T05:57:21.909Z,48.45
2023-04-12T05:59:49.799Z,48.43
2023-04-12T06:02:18.797Z,48.59
2023-04-12T06:04:50.153Z,48.54
2023-04-12T06:07:19.605Z,48.51
2023-04-12T06:09:47.462Z,48.74
2023-04-12T06:12:15.951Z,48.66
2023-04-12T06:14:43.320Z,48.66
2023-04-12T06:17:15.356Z,48.86
2023-04-12T06:19:42.732Z,48.77
2023-04-12T06:22:10.513Z,48.75
2023-04-12T06:24:39.964Z,48.64
2023-04-12T06:27:09.076Z,48.85
2023-04-12T06:29:36.371Z,48.72
2023-04-12T06:32:04.261Z,48.86
2023-04-12T06:34:34.524Z,49.05
2023-04-12T06:37:05.947Z,49.29
2023-04-12T06:39:33.274Z,49.04
2023-04-12T06:42:01.685Z,49.16
2023-04-12T06:44:29.378Z,49.22
2023-04-12T06:46:56.698Z,49.29
2023-04-12T06:49:24.088Z,49.28
2023-04-12T06:51:51.794Z,49.52
2023-04-12T06:54:19.077Z,49.43
2023-04-12T06:56:46.357Z,49.91
2023-04-12T06:59:13.688Z,49.64
2023-04-12T07:01:41.945Z,49.71
2023-04-12T07:04:11.823Z,49.80
2023-04-12T07:06:39.370Z,49.81
2023-04-12T07:09:06.716Z,49.76
2023-04-12T07:11:33.982Z,50.02
2023-04-12T07:14:01.268Z,50.11
2023-04-12T07:16:31.561Z,50.28
2023-04-12T07:19:00.112Z,50.38
2023-04-12T07:21:28.294Z,50.43
2023-04-12T07:23:55.937Z,50.26
2023-04-12T07:26:23.818Z,50.24
2023-04-12T07:28:51.507Z,50.60
2023-04-12T07:31:18.878Z,50.45
2023-04-12T07:33:46.429Z,50.19
2023-04-12T07:36:16.347Z,50.40
2023-04-12T07:38:43.728Z,50.40
2023-04-12T07:41:11.073Z,50.32
2023-04-12T07:43:38.364Z,50.29
2023-04-12T07:46:08.746Z,50.20
2023-04-12T07:48:36.310Z,50.29
2023-04-12T07:51:03.963Z,50.39
2023-04-12T07:53:31.509Z,50.35
2023-04-12T07:55:58.795Z,50.53
2023-04-12T07:58:26.149Z,50.49
2023-04-12T08:00:53.857Z,50.58
2023-04-12T08:03:21.184Z,50.59
2023-04-12T08:05:53.630Z,50.59
2023-04-12T08:08:22.414Z,50.57
2023-04-12T08:10:50.638Z,50.71
2023-04-12T08:13:18.448Z,50.68
2023-04-12T08:15:47.489Z,50.76
2023-04-12T08:18:15.626Z,50.87
2023-04-12T08:20:44.213Z,50.87
2023-04-12T08:23:11.757Z,51.22
2023-04-12T08:25:39.100Z,50.83
2023-04-12T08:28:09.311Z,50.95
2023-04-12T08:30:36.815Z,51.88
2023-04-12T08:33:04.422Z,51.17
2023-04-12T08:35:32.711Z,52.67
2023-04-12T08:38:06.822Z,53.21
2023-04-12T08:40:34.223Z,52.12
2023-04-12T08:43:03.613Z,52.77
2023-04-12T08:45:33.324Z,52.59
2023-04-12T08:48:04.067Z,52.65
2023-04-12T08:50:32.483Z,53.38
2023-04-12T08:53:00.119Z,53.13
2023-04-12T08:55:27.397Z,52.72
2023-04-12T08:57:58.622Z,53.44
2023-04-12T09:00:26.359Z,52.93
2023-04-12T09:02:53.741Z,53.68
2023-04-12T09:05:28.513Z,53.46
2023-04-12T09:07:57.791Z,53.34
2023-04-12T09:10:37.165Z,53.21
2023-04-12T09:13:06.038Z,53.22
2023-04-12T09:15:34.347Z,53.21
2023-04-12T09:18:11.378Z,53.51
2023-04-12T09:20:39.173Z,53.81
2023-04-12T09:23:18.907Z,53.78
2023-04-12T09:25:48.420Z,53.65
2023-04-12T09:28:33.959Z,53.98
2023-04-12T09:31:01.458Z,53.84
2023-04-12T09:33:39.718Z,54.16
2023-04-12T09:36:14.461Z,54.63
2023-04-12T09:39:00.827Z,55.31
2023-04-12T09:41:30.674Z,55.62
2023-04-12T09:44:01.370Z,56.02
2023-04-12T09:46:29.043Z,55.77
2023-04-12T09:48:59.153Z,55.52
2023-04-12T09:51:34.003Z,54.87
2023-04-12T09:54:03.421Z,55.30
2023-04-12T09:56:36.689Z,55.43
2023-04-12T09:59:05.859Z,55.56
2023-04-12T10:01:41.203Z,54.37
2023-04-12T10:04:10.601Z,55.05
2023-04-12T10:06:41.386Z,55.94
2023-04-12T10:09:09.151Z,55.93
2023-04-12T10:11:42.077Z,56.35
2023-04-12T10:14:10.065Z,56.51
2023-04-12T10:16:40.621Z,56.74
2023-04-12T10:19:09.709Z,56.65
2023-04-12T10:21:37.004Z,56.37
2023-04-12T10:24:07.248Z,55.97
2023-04-12T10:26:35.059Z,56.28
2023-04-12T10:29:32.859Z,56.34
2023-04-12T10:32:24.476Z,56.42
2023-04-12T10:34:58.981Z,56.70
2023-04-12T10:38:17.663Z,56.75
2023-04-12T10:41:14.327Z,57.00
2023-04-12T10:43:43.513Z,56.03
2023-04-12T10:46:39.540Z,55.61
2023-04-12T10:49:17.369Z,56.00
2023-04-12T10:52:01.889Z,56.55
2023-04-12T10:54:30.233Z,57.75
2023-04-12T10:56:57.722Z,58.46
2023-04-12T11:00:03.873Z,59.85
2023-04-12T11:02:34.612Z,59.46
2023-04-12T11:05:09.158Z,59.92
2023-04-12T11:07:55.737Z,59.63
2023-04-12T11:10:50.711Z,58.83
2023-04-12T11:13:26.442Z,57.00
2023-04-12T11:15:57.615Z,57.16
2023-04-12T11:18:25.802Z,58.55
2023-04-12T11:20:54.099Z,58.61
2023-04-12T11:23:22.105Z,57.72
2023-04-12T11:25:55.893Z,58.15
2023-04-12T11:28:29.626Z,57.79
2023-04-12T11:30:58.693Z,57.89
2023-04-12T11:33:35.970Z,57.42
2023-04-12T11:36:06.127Z,57.57
2023-04-12T11:38:35.238Z,57.24
2023-04-12T11:41:02.812Z,57.74
2023-04-12T11:43:30.288Z,57.73
2023-04-12T11:45:59.279Z,56.08
2023-04-12T11:48:28.106Z,56.48
2023-04-12T11:51:10.336Z,56.66
2023-04-12T11:53:38.093Z,57.29
2023-04-12T11:56:06.002Z,56.51
2023-04-12T11:58:33.337Z,57.50
2023-04-12T12:01:00.876Z,58.36
2023-04-12T12:03:28.836Z,58.16
2023-04-12T12:05:56.726Z,57.80
2023-04-12T12:08:24.803Z,58.10
2023-04-12T12:11:03.951Z,58.00
2023-04-12T12:13:46.569Z,58.46
2023-04-12T12:16:14.445Z,58.48
2023-04-12T12:18:43.110Z,58.13
2023-04-12T12:21:12.515Z,58.18
2023-04-12T12:23:42.931Z,58.49
2023-04-12T12:26:18.942Z,58.50
2023-04-12T12:28:55.707Z,58.60
2023-04-12T12:31:26.404Z,58.50
2023-04-12T12:33:59.273Z,58.31
2023-04-12T12:36:34.308Z,58.41
2023-04-12T12:39:15.386Z,58.52
2023-04-12T12:41:42.732Z,58.57
2023-04-12T12:44:12.229Z,58.37
2023-04-12T12:49:09.736Z,58.39
2023-04-12T12:51:36.958Z,58.42
2023-04-12T12:54:04.298Z,58.33
2023-04-12T12:56:31.617Z,58.32
2023-04-12T12:58:59.036Z,58.11
2023-04-12T13:01:27.663Z,58.51
2023-04-12T13:03:55.241Z,58.35
2023-04-12T13:06:23.229Z,58.55
2023-04-12T13:08:52.284Z,58.54
2023-04-12T13:11:20.455Z,58.34
2023-04-12T13:13:47.760Z,58.28
2023-04-12T13:16:15.754Z,58.42
2023-04-12T13:18:43.389Z,58.39
2023-04-12T13:21:10.934Z,58.32
2023-04-12T13:23:38.287Z,58.41
2023-04-12T13:26:06.156Z,58.40
2023-04-12T13:28:33.595Z,58.40
2023-04-12T13:31:01.363Z,58.43
2023-04-12T13:33:28.703Z,58.23
2023-04-12T13:35:56.407Z,58.45
2023-04-12T13:38:23.897Z,58.43
2023-04-12T13:40:51.306Z,58.23
2023-04-12T13:43:19.007Z,58.32
2023-04-12T13:45:46.221Z,58.51
2023-04-12T13:48:13.654Z,58.34
2023-04-12T13:50:40.931Z,58.40
2023-04-12T13:53:08.173Z,58.50
2023-04-12T13:55:35.449Z,58.44
2023-04-12T13:58:02.904Z,58.33
2023-04-12T14:00:30.251Z,58.20
2023-04-12T14:02:57.700Z,58.29
2023-04-12T14:05:25.154Z,58.45
2023-04-12T14:07:52.557Z,58.32
2023-04-12T14:10:19.777Z,58.39
2023-04-12T14:12:47.352Z,58.32
2023-04-12T14:15:14.680Z,58.21
2023-04-12T14:17:42.667Z,58.24
2023-04-12T14:20:13.428Z,57.90
2023-04-12T14:22:40.893Z,58.36
2023-04-12T14:25:08.630Z,58.31
2023-04-12T14:27:35.937Z,58.30
2023-04-12T14:30:05.167Z,58.41
2023-04-12T14:32:32.447Z,58.45
2023-04-12T14:34:59.763Z,58.24
2023-04-12T14:37:27.381Z,58.21
2023-04-12T14:39:54.715Z,58.29
2023-04-12T14:42:22.065Z,58.27
2023-04-12T14:44:49.484Z,58.28
2023-04-12T14:47:16.922Z,58.35
2023-04-12T14:49:44.325Z,58.45
2023-04-12T14:52:11.937Z,58.26
2023-04-12T14:54:39.233Z,58.32
2023-04-12T14:57:06.503Z,57.90
2023-04-12T14:59:33.934Z,58.32
2023-04-12T15:02:01.297Z,58.19
2023-04-12T15:04:28.882Z,58.28
2023-04-12T15:06:56.333Z,58.34
2023-04-12T15:09:24.200Z,58.29
2023-04-12T15:11:56.216Z,58.22
2023-04-12T15:14:23.428Z,58.28
2023-04-12T15:16:50.719Z,58.36
2023-04-12T15:19:22.382Z,58.24
2023-04-12T15:21:57.045Z,58.24
2023-04-12T15:24:25.012Z,58.30
2023-04-12T15:26:53.206Z,58.34
2023-04-12T15:29:22.755Z,58.10
2023-04-12T15:31:51.870Z,58.45
2023-04-12T15:34:19.605Z,58.21
2023-04-12T15:36:47.234Z,58.30
2023-04-12T15:39:15.014Z,58.18
2023-04-12T15:41:43.556Z,58.30
2023-04-12T15:44:14.594Z,58.17
2023-04-12T15:46:42.588Z,58.25
2023-04-12T15:49:10.871Z,58.18
2023-04-12T15:51:38.759Z,58.10
2023-04-12T15:54:06.362Z,58.22
2023-04-12T15:56:35.169Z,58.07
2023-04-12T15:59:02.934Z,58.10
2023-04-12T16:01:30.304Z,58.15
2023-04-12T16:03:57.950Z,58.10
2023-04-12T16:06:25.631Z,58.04
2023-04-12T16:08:59.161Z,58.14
2023-04-12T16:11:27.614Z,58.21
2023-04-12T16:13:55.164Z,58.34
2023-04-12T16:16:23.662Z,58.20
2023-04-12T16:18:52.749Z,58.01
2023-04-12T16:21:22.230Z,58.16
2023-04-12T16:23:50.895Z,58.12
2023-04-12T16:26:21.953Z,58.11
2023-04-12T16:28:55.359Z,58.00
2023-04-12T16:31:25.437Z,58.07
2023-04-12T16:33:53.596Z,57.88
2023-04-12T16:36:23.398Z,57.87
2023-04-12T16:38:54.432Z,57.83
2023-04-12T16:41:21.721Z,57.74
2023-04-12T16:43:52.799Z,57.91
2023-04-12T16:46:21.177Z,57.82
2023-04-12T16:48:48.574Z,57.07
2023-04-12T16:51:15.912Z,57.55
2023-04-12T16:53:43.154Z,57.88
2023-04-12T16:56:10.988Z,57.29
2023-04-12T16:58:38.279Z,58.31
2023-04-12T17:01:05.839Z,58.88
2023-04-12T17:03:33.271Z,59.07
2023-04-12T17:06:00.634Z,59.16
2023-04-12T17:08:28.041Z,59.32
2023-04-12T17:10:55.320Z,59.25
2023-04-12T17:13:22.641Z,58.99
2023-04-12T17:15:49.965Z,59.35
2023-04-12T17:18:17.342Z,59.40
2023-04-12T17:20:44.882Z,59.39
2023-04-12T17:23:13.597Z,58.37
2023-04-12T17:25:41.838Z,57.36
2023-04-12T17:28:09.520Z,58.87
2023-04-12T17:30:37.223Z,59.27
2023-04-12T17:33:05.127Z,59.04
2023-04-12T17:35:32.446Z,59.06
2023-04-12T17:37:59.849Z,59.14
2023-04-12T17:40:27.257Z,59.02
2023-04-12T17:42:54.519Z,59.02
2023-04-12T17:45:22.055Z,58.83
2023-04-12T17:47:49.710Z,58.19
2023-04-12T17:50:17.023Z,58.05
2023-04-12T17:52:44.451Z,58.46
2023-04-12T17:55:12.849Z,58.48
2023-04-12T17:57:40.738Z,58.52
2023-04-12T18:00:11.506Z,58.53
2023-04-12T18:02:44.928Z,57.96
2023-04-12T18:05:13.257Z,57.78
2023-04-12T18:07:41.234Z,58.07
2023-04-12T18:10:15.838Z,58.16
2023-04-12T18:12:45.045Z,57.97
2023-04-12T18:15:12.723Z,57.83
2023-04-12T18:17:40.152Z,57.85
2023-04-12T18:20:11.408Z,57.01
2023-04-12T18:22:39.164Z,57.39
2023-04-12T18:25:07.736Z,58.13
2023-04-12T18:27:35.223Z,57.29
2023-04-12T18:30:03.348Z,57.56
2023-04-12T18:32:31.041Z,57.46
2023-04-12T18:34:58.863Z,57.32
2023-04-12T18:37:27.512Z,57.27
2023-04-12T18:39:55.473Z,57.51
2023-04-12T18:42:22.823Z,57.75
2023-04-12T18:44:50.909Z,56.80
2023-04-12T18:47:18.860Z,58.85
2023-04-12T18:49:46.193Z,59.05
2023-04-12T18:52:13.466Z,59.31
2023-04-12T18:54:40.785Z,59.48
2023-04-12T18:57:08.504Z,59.53
2023-04-12T18:59:36.036Z,59.55
2023-04-12T19:02:03.576Z,59.45
2023-04-12T19:04:31.269Z,59.12
2023-04-12T19:06:58.698Z,59.40
2023-04-12T19:09:26.609Z,59.31
2023-04-12T19:11:57.115Z,59.25
2023-04-12T19:14:26.890Z,59.42
2023-04-12T19:16:55.830Z,59.36
2023-04-12T19:19:25.157Z,59.38
2023-04-12T19:21:54.920Z,59.28
2023-04-12T19:24:23.355Z,58.91
2023-04-12T19:26:55.216Z,58.72
2023-04-12T19:29:24.582Z,58.83
2023-04-12T19:31:53.818Z,59.58
2023-04-12T19:34:22.921Z,58.17
2023-04-12T19:36:52.575Z,58.67
2023-04-12T19:39:25.533Z,59.73
2023-04-12T19:41:58.650Z,59.78
2023-04-12T19:44:31.682Z,59.76
2023-04-12T19:47:02.801Z,59.64
2023-04-12T19:49:34.485Z,59.54
2023-04-12T19:52:08.606Z,59.60
2023-04-12T19:54:39.174Z,59.65
2023-04-12T19:57:08.260Z,59.55
2023-04-12T19:59:37.761Z,59.38
2023-04-12T20:02:11.855Z,59.28
2023-04-12T20:04:42.737Z,58.27
2023-04-12T20:07:14.037Z,58.90
2023-04-12T20:09:43.899Z,58.69
2023-04-12T20:12:12.385Z,56.97
2023-04-12T20:14:40.831Z,58.44
2023-04-12T20:17:11.580Z,59.19
2023-04-12T20:19:42.805Z,59.39
2023-04-12T20:22:12.617Z,59.42
2023-04-12T20:24:47.394Z,59.46
2023-04-12T20:27:20.677Z,59.24
2023-04-12T20:29:52.304Z,59.29
2023-04-12T20:32:21.745Z,59.40
2023-04-12T20:34:52.071Z,58.77
2023-04-12T20:37:22.458Z,59.16
2023-04-12T20:39:52.713Z,59.20
2023-04-12T20:42:25.644Z,59.06
2023-04-12T20:44:56.191Z,58.89
2023-04-12T20:47:27.055Z,58.87
2023-04-12T20:49:57.234Z,58.99
2023-04-12T20:52:29.135Z,58.70
2023-04-12T20:54:59.335Z,58.43
2023-04-12T20:57:31.635Z,58.51
2023-04-12T21:00:01.859Z,58.32
2023-04-12T21:02:34.067Z,58.28
2023-04-12T21:05:05.708Z,58.16
2023-04-12T21:07:34.755Z,58.08
2023-04-12T21:10:02.932Z,57.75
2023-04-12T21:12:35.757Z,57.96
2023-04-12T21:15:03.715Z,57.68
2023-04-12T21:17:32.161Z,57.66
2023-04-12T21:20:00.057Z,57.76
2023-04-12T21:22:29.185Z,57.80
2023-04-12T21:24:56.922Z,57.75
2023-04-12T21:27:25.253Z,57.68
2023-04-12T21:29:52.907Z,57.89
2023-04-12T21:32:20.175Z,57.66
2023-04-12T21:34:48.521Z,57.86
2023-04-12T21:37:16.216Z,58.21
2023-04-12T21:39:44.189Z,58.62
2023-04-12T21:42:11.714Z,58.59
2023-04-12T21:44:42.191Z,58.40
2023-04-12T21:47:09.548Z,59.01
2023-04-12T21:49:37.048Z,58.81
2023-04-12T21:52:04.419Z,58.69
2023-04-12T21:54:36.820Z,57.04
2023-04-12T21:57:04.695Z,56.38
2023-04-12T21:59:31.976Z,56.09
2023-04-12T22:01:59.351Z,56.11
2023-04-12T22:04:27.208Z,56.15
2023-04-12T22:06:56.662Z,56.04
2023-04-12T22:09:24.714Z,56.13
2023-04-12T22:11:52.261Z,56.19
2023-04-12T22:14:19.714Z,56.16
2023-04-12T22:16:47.067Z,56.00
2023-04-12T22:19:16.394Z,55.97
2023-04-12T22:21:43.688Z,55.93
2023-04-12T22:24:11.019Z,55.94
2023-04-12T22:26:38.291Z,55.85
2023-04-12T22:29:06.112Z,55.83
2023-04-12T22:31:33.461Z,55.88
2023-04-12T22:34:01.733Z,55.80
2023-04-12T22:36:29.747Z,56.24
2023-04-12T22:38:57.023Z,56.80
2023-04-12T22:41:28.437Z,56.88
2023-04-12T22:44:02.908Z,56.96
2023-04-12T22:46:33.439Z,58.01
2023-04-12T22:49:00.731Z,57.94
2023-04-12T22:51:28.180Z,57.99
2023-04-12T22:53:55.746Z,58.21
2023-04-12T22:56:23.129Z,58.02
2023-04-12T22:58:50.483Z,57.81
2023-04-12T23:01:18.778Z,57.31
2023-04-12T23:03:46.195Z,57.27
2023-04-12T23:06:13.780Z,56.83
2023-04-12T23:08:41.073Z,56.37
2023-04-12T23:11:08.430Z,56.90
2023-04-12T23:13:35.717Z,56.37
2023-04-12T23:16:03.772Z,56.52
2023-04-12T23:18:32.786Z,56.43
2023-04-12T23:21:01.582Z,56.59
2023-04-12T23:23:29.718Z,56.69
2023-04-12T23:25:56.977Z,56.79
2023-04-12T23:28:25.866Z,56.39
2023-04-12T23:30:53.244Z,56.77
2023-04-12T23:33:21.580Z,56.64
2023-04-12T23:35:52.480Z,56.50
2023-04-12T23:38:24.416Z,56.46
2023-04-12T23:40:54.947Z,56.46
2023-04-12T23:43:24.374Z,56.42
2023-04-12T23:45:52.317Z,56.16
2023-04-12T23:48:19.611Z,56.35
2023-04-12T23:50:48.172Z,56.39
2023-04-12T23:53:17.434Z,56.28
2023-04-12T23:55:48.868Z,56.29
2023-04-12T23:58:16.906Z,56.19
